Time;durP1;ratioP1;P1;durP2;ratioP2;P2;SDS_P1;SDS_P2;PMS_P1;PMS_P2;Temp;Humidity;BMP_temperature;BMP_pressure;BME280_temperature;BME280_humidity;BME280_pressure;Samples;Min_cycle;Max_cycle;Signal;HPM_P1;HPM_P2
2022/07/28 00:00:22;;;;;;;3.72;1.15;;;18.50;56.80;;;;;;5098261;28;20049;-70
2022/07/28 00:02:48;;;;;;;2.85;1.17;;;18.50;57.00;;;;;;5081567;28;20045;-70
2022/07/28 00:05:14;;;;;;;4.03;1.00;;;18.50;57.10;;;;;;5116057;28;20035;-70
2022/07/28 00:07:39;;;;;;;1.23;0.75;;;18.50;56.90;;;;;;5098251;28;20032;-70
2022/07/28 00:10:06;;;;;;;2.33;1.10;;;18.30;57.10;;;;;;5115962;28;20032;-70
2022/07/28 00:12:32;;;;;;;1.88;0.80;;;18.30;57.10;;;;;;5081113;28;20044;-70
2022/07/28 00:14:57;;;;;;;2.20;1.00;;;18.30;57.10;;;;;;5115855;28;20027;-70
2022/07/28 00:17:23;;;;;;;2.95;0.90;;;18.30;57.10;;;;;;5097297;28;20073;-70
2022/07/28 00:19:49;;;;;;;3.60;1.02;;;18.40;57.20;;;;;;5097578;28;20021;-70
2022/07/28 00:22:15;;;;;;;3.38;1.10;;;18.40;56.90;;;;;;5115704;28;20043;-70
2022/07/28 00:24:41;;;;;;;3.05;1.17;;;18.30;57.10;;;;;;5097874;28;20020;-70
2022/07/28 00:27:08;;;;;;;2.05;0.93;;;18.30;57.30;;;;;;5115656;28;20028;-70
2022/07/28 00:29:33;;;;;;;1.90;1.13;;;18.30;56.90;;;;;;5115516;28;20023;-70
2022/07/28 00:31:59;;;;;;;4.07;1.50;;;18.30;56.80;;;;;;5115472;28;20076;-70
2022/07/28 00:34:25;;;;;;;3.15;1.10;;;18.30;57.00;;;;;;5097560;28;20035;-70
2022/07/28 00:36:50;;;;;;;2.63;1.02;;;18.30;57.10;;;;;;5097622;28;20020;-70
2022/07/28 00:39:16;;;;;;;3.30;1.45;;;18.30;57.20;;;;;;5080794;28;20380;-70
2022/07/28 00:41:42;;;;;;;3.40;1.33;;;18.20;57.10;;;;;;5115350;28;20024;-70
2022/07/28 00:44:07;;;;;;;2.42;1.10;;;18.20;57.20;;;;;;5115312;28;20071;-70
2022/07/28 00:46:34;;;;;;;2.10;1.15;;;18.20;57.40;;;;;;5115237;28;20028;-70
2022/07/28 00:49:00;;;;;;;3.95;1.40;;;18.10;57.50;;;;;;5097336;28;20027;-70
2022/07/28 00:51:26;;;;;;;3.33;1.00;;;18.10;57.50;;;;;;5115058;28;20028;-70
2022/07/28 00:53:53;;;;;;;2.65;1.15;;;18.10;58.40;;;;;;5080724;28;20031;-70
2022/07/28 00:56:19;;;;;;;3.15;1.13;;;18.10;57.70;;;;;;5115196;28;20027;-70
2022/07/28 00:58:46;;;;;;;1.85;1.30;;;18.10;58.10;;;;;;5115172;28;20020;-70
2022/07/28 01:01:18;;;;;;;1.73;1.00;;;18.00;58.00;;;;;;5097249;28;20028;-70
2022/07/28 01:03:49;;;;;;;4.38;1.00;;;18.00;58.00;;;;;;5114970;28;20020;-70
2022/07/28 01:06:17;;;;;;;2.58;1.00;;;17.80;58.80;;;;;;5114887;28;20020;-70
2022/07/28 01:08:52;;;;;;;1.70;1.00;;;17.80;58.30;;;;;;5114805;28;20034;-70
2022/07/28 01:11:33;;;;;;;3.30;1.13;;;17.70;58.20;;;;;;5114675;28;20056;-70
2022/07/28 01:14:14;;;;;;;2.67;1.08;;;17.70;58.40;;;;;;5114901;28;20016;-70
2022/07/28 01:16:48;;;;;;;2.38;1.20;;;17.60;58.80;;;;;;5114732;28;20027;-70
2022/07/28 01:19:39;;;;;;;1.50;0.95;;;17.40;59.30;;;;;;5114673;28;20012;-70
2022/07/28 01:22:15;;;;;;;3.67;1.10;;;17.30;59.50;;;;;;5114770;28;20040;-70
2022/07/28 01:24:58;;;;;;;1.20;0.90;;;17.30;59.70;;;;;;5114557;28;20023;-70
2022/07/28 01:28:05;;;;;;;2.92;1.10;;;17.30;59.80;;;;;;5114627;28;20020;-70
2022/07/28 01:30:41;;;;;;;3.38;1.20;;;17.30;59.60;;;;;;5012282;28;20077;-70
2022/07/28 01:33:20;;;;;;;3.47;1.20;;;17.20;59.60;;;;;;5012942;28;20042;-70
2022/07/28 01:35:55;;;;;;;3.35;1.00;;;17.10;59.70;;;;;;5059413;28;20056;-70
2022/07/28 01:38:22;;;;;;;3.55;0.90;;;16.90;60.30;;;;;;5114315;28;20024;-70
2022/07/28 01:40:51;;;;;;;2.60;1.45;;;16.90;60.50;;;;;;5114253;28;20093;-70
2022/07/28 01:43:23;;;;;;;3.05;1.10;;;17.00;60.50;;;;;;5114214;28;20020;-70
2022/07/28 01:45:48;;;;;;;1.80;1.20;;;17.00;60.60;;;;;;5096323;28;20039;-70
2022/07/28 01:48:17;;;;;;;1.95;1.27;;;17.00;60.10;;;;;;5096284;28;20024;-70
2022/07/28 01:50:46;;;;;;;3.35;1.23;;;17.00;60.20;;;;;;5113941;28;20032;-70
2022/07/28 01:53:14;;;;;;;3.17;1.30;;;17.00;59.90;;;;;;5114134;28;20511;-70
2022/07/28 01:55:42;;;;;;;2.70;1.00;;;16.90;60.10;;;;;;5114011;28;20016;-70
2022/07/28 01:58:09;;;;;;;2.75;1.15;;;17.00;60.20;;;;;;5113923;28;20027;-70
2022/07/28 02:00:35;;;;;;;3.03;1.50;;;17.00;60.00;;;;;;5113925;28;20031;-70
2022/07/28 02:03:05;;;;;;;3.97;1.25;;;17.00;59.90;;;;;;5095955;28;20368;-70
2022/07/28 02:05:33;;;;;;;5.72;1.33;;;16.90;60.10;;;;;;5095872;28;20024;-70
2022/07/28 02:08:01;;;;;;;3.08;1.38;;;16.80;60.20;;;;;;5113837;28;20076;-70
2022/07/28 02:10:28;;;;;;;1.98;1.25;;;16.80;60.30;;;;;;5113589;28;20021;-70
2022/07/28 02:12:56;;;;;;;3.63;1.23;;;16.90;60.10;;;;;;5113710;28;20036;-70
2022/07/28 02:15:25;;;;;;;2.60;1.27;;;16.80;59.80;;;;;;5113702;28;20028;-70
2022/07/28 02:17:51;;;;;;;2.72;1.08;;;16.70;60.40;;;;;;5095805;28;20051;-70
2022/07/28 02:20:18;;;;;;;2.85;1.00;;;16.70;60.70;;;;;;5095744;28;20019;-70
2022/07/28 02:22:46;;;;;;;1.67;1.10;;;16.70;60.30;;;;;;5079172;28;20032;-70
2022/07/28 02:25:12;;;;;;;2.00;1.20;;;16.70;60.40;;;;;;5113609;28;20031;-70
2022/07/28 02:27:45;;;;;;;2.03;1.00;;;16.70;60.00;;;;;;5113592;28;20078;-70
2022/07/28 02:30:15;;;;;;;1.83;1.10;;;16.70;59.80;;;;;;5113445;28;20031;-70
2022/07/28 02:32:49;;;;;;;4.88;1.30;;;16.60;60.30;;;;;;5095549;28;20024;-70
2022/07/28 02:35:27;;;;;;;4.30;1.50;;;16.50;61.10;;;;;;5113666;28;20019;-70
2022/07/28 02:38:16;;;;;;;1.42;0.98;;;16.50;61.30;;;;;;5113454;28;20371;-70
2022/07/28 02:40:43;;;;;;;4.03;1.17;;;16.50;61.50;;;;;;5077996;28;20052;-70
2022/07/28 02:43:15;;;;;;;1.88;1.20;;;16.50;61.70;;;;;;5099750;28;20027;-70
2022/07/28 02:45:45;;;;;;;3.17;1.30;;;16.50;61.60;;;;;;5117626;28;20042;-70
2022/07/28 02:48:15;;;;;;;2.72;1.15;;;16.40;61.50;;;;;;5117526;28;20070;-70
2022/07/28 02:50:44;;;;;;;1.75;1.05;;;16.30;61.60;;;;;;5117449;28;20076;-70
2022/07/28 02:53:11;;;;;;;2.28;1.00;;;16.40;61.70;;;;;;5117455;28;20020;-70
2022/07/28 02:55:39;;;;;;;3.42;1.10;;;16.50;61.40;;;;;;5117409;28;20020;-70
2022/07/28 02:58:07;;;;;;;1.15;0.85;;;16.50;61.30;;;;;;5117373;28;20031;-70
2022/07/28 03:00:33;;;;;;;3.30;1.25;;;16.60;61.00;;;;;;5099742;28;20016;-70
2022/07/28 03:02:59;;;;;;;3.10;1.63;;;16.60;60.80;;;;;;5117407;28;20021;-70
2022/07/28 03:05:27;;;;;;;2.22;1.13;;;16.60;60.60;;;;;;5117217;28;20076;-70
2022/07/28 03:07:53;;;;;;;1.90;1.15;;;16.70;60.50;;;;;;5099654;28;20024;-70
2022/07/28 03:10:24;;;;;;;2.00;1.25;;;16.70;60.40;;;;;;5117004;28;20012;-71
2022/07/28 03:12:50;;;;;;;1.58;1.10;;;16.70;60.30;;;;;;5117079;28;20028;-70
2022/07/28 03:15:16;;;;;;;2.00;1.42;;;16.70;60.30;;;;;;5117052;28;20051;-70
2022/07/28 03:17:42;;;;;;;2.92;1.10;;;16.70;60.40;;;;;;5117003;28;20024;-70
2022/07/28 03:20:08;;;;;;;2.90;1.00;;;16.70;60.40;;;;;;5116744;28;20028;-70
2022/07/28 03:22:34;;;;;;;6.32;1.10;;;16.70;60.30;;;;;;5098886;28;20057;-70
2022/07/28 03:25:03;;;;;;;4.30;0.98;;;16.70;60.40;;;;;;5116872;28;20036;-70
2022/07/28 03:27:33;;;;;;;3.22;1.10;;;16.60;60.70;;;;;;5116805;28;20024;-70
2022/07/28 03:30:03;;;;;;;4.13;1.08;;;16.60;61.10;;;;;;5116730;28;20030;-70
2022/07/28 03:32:32;;;;;;;1.75;1.00;;;16.50;61.30;;;;;;5116836;28;20028;-71
2022/07/28 03:34:58;;;;;;;5.05;1.30;;;16.50;61.60;;;;;;5098776;28;20020;-70
2022/07/28 03:37:37;;;;;;;1.42;0.90;;;16.40;61.50;;;;;;5116634;28;20032;-70
2022/07/28 03:40:08;;;;;;;1.30;1.17;;;16.30;61.90;;;;;;5098631;28;20084;-70
2022/07/28 03:42:35;;;;;;;4.07;1.25;;;16.30;61.90;;;;;;5098835;28;20036;-70
2022/07/28 03:45:01;;;;;;;2.38;1.25;;;16.30;62.00;;;;;;5116616;28;20025;-70
2022/07/28 03:47:27;;;;;;;2.83;1.00;;;16.30;61.90;;;;;;5116419;28;20020;-70
2022/07/28 03:49:53;;;;;;;3.35;1.00;;;16.30;62.10;;;;;;5116377;28;20088;-70
2022/07/28 03:52:18;;;;;;;1.80;1.20;;;16.30;62.10;;;;;;5098251;28;20032;-70
2022/07/28 03:54:44;;;;;;;3.60;1.20;;;16.30;62.10;;;;;;5116304;28;20020;-70
2022/07/28 03:57:10;;;;;;;1.67;1.20;;;16.30;62.30;;;;;;5116205;28;20039;-70
2022/07/28 03:59:36;;;;;;;3.70;1.23;;;16.30;62.00;;;;;;5116212;28;20024;-70
2022/07/28 04:02:02;;;;;;;3.00;1.02;;;16.20;61.80;;;;;;5098382;28;20131;-70
2022/07/28 04:04:27;;;;;;;2.10;1.27;;;16.10;62.40;;;;;;5116080;28;20046;-70
2022/07/28 04:06:53;;;;;;;2.42;1.10;;;15.90;63.10;;;;;;5116036;28;20387;-70
2022/07/28 04:09:19;;;;;;;5.22;1.50;;;16.00;63.20;;;;;;5116030;28;20032;-70
2022/07/28 04:11:44;;;;;;;3.17;1.20;;;15.90;62.80;;;;;;5115716;28;20074;-70
2022/07/28 04:14:10;;;;;;;1.75;1.30;;;15.80;63.20;;;;;;5115918;28;20035;-70
2022/07/28 04:16:35;;;;;;;3.08;1.20;;;15.80;63.70;;;;;;5116037;28;20096;-70
2022/07/28 04:19:01;;;;;;;4.72;1.10;;;15.90;63.70;;;;;;5115791;28;20081;-70
2022/07/28 04:21:27;;;;;;;4.47;1.30;;;15.90;64.30;;;;;;5081187;28;20114;-70
2022/07/28 04:23:52;;;;;;;2.33;1.08;;;15.80;63.70;;;;;;5097943;28;20039;-70
2022/07/28 04:26:18;;;;;;;4.03;1.35;;;15.70;64.00;;;;;;5115688;28;20032;-70
2022/07/28 04:28:45;;;;;;;1.83;1.38;;;15.70;64.10;;;;;;5115588;28;20028;-70
2022/07/28 04:31:11;;;;;;;4.10;1.10;;;15.80;63.60;;;;;;5115470;28;20036;-70
2022/07/28 04:33:36;;;;;;;2.20;1.23;;;15.80;63.60;;;;;;5115537;28;20032;-70
2022/07/28 04:36:03;;;;;;;5.15;1.20;;;15.80;63.70;;;;;;5097541;28;20050;-70
2022/07/28 04:38:28;;;;;;;2.88;1.10;;;15.80;63.60;;;;;;5097488;28;20024;-70
2022/07/28 04:40:55;;;;;;;3.17;1.55;;;15.90;63.90;;;;;;5097605;28;20054;-70
2022/07/28 04:43:21;;;;;;;1.50;1.20;;;15.90;63.90;;;;;;5097443;28;20098;-70
2022/07/28 04:45:49;;;;;;;2.17;1.38;;;16.00;63.80;;;;;;5097402;28;20036;-70
2022/07/28 04:48:15;;;;;;;3.58;1.60;;;16.00;63.80;;;;;;5115231;28;20031;-70
2022/07/28 04:50:41;;;;;;;4.60;1.27;;;16.00;63.70;;;;;;5115132;28;20024;-71
2022/07/28 04:53:07;;;;;;;2.92;1.25;;;15.90;64.20;;;;;;5115178;28;20023;-70
2022/07/28 04:55:33;;;;;;;3.60;1.20;;;15.90;64.10;;;;;;5115117;28;20513;-70
2022/07/28 04:57:59;;;;;;;2.92;1.20;;;16.00;64.30;;;;;;5097153;28;20016;-70
2022/07/28 05:00:25;;;;;;;3.70;1.17;;;16.00;64.10;;;;;;5097198;28;20053;-70
2022/07/28 05:02:50;;;;;;;3.00;1.40;;;16.00;64.00;;;;;;5097025;28;20043;-70
2022/07/28 05:05:16;;;;;;;4.00;1.67;;;16.00;64.00;;;;;;5096494;28;20048;-70
2022/07/28 05:07:43;;;;;;;2.15;1.20;;;16.10;64.10;;;;;;5114871;28;20024;-70
2022/07/28 05:10:10;;;;;;;4.05;1.20;;;16.20;64.00;;;;;;5114839;28;20020;-71
2022/07/28 05:12:37;;;;;;;2.92;1.30;;;16.20;63.90;;;;;;5079787;28;20513;-71
2022/07/28 05:15:04;;;;;;;4.45;1.10;;;16.20;63.90;;;;;;5114770;28;20047;-71
2022/07/28 05:17:30;;;;;;;2.53;1.05;;;16.20;63.70;;;;;;5114599;28;20177;-71
2022/07/28 05:19:55;;;;;;;3.20;1.20;;;16.20;63.80;;;;;;5080027;28;20063;-71
2022/07/28 05:22:21;;;;;;;1.85;0.90;;;16.20;63.80;;;;;;5114713;28;20028;-71
2022/07/28 05:24:47;;;;;;;5.53;1.30;;;16.20;63.60;;;;;;5114567;28;20032;-71
2022/07/28 05:27:12;;;;;;;2.45;1.00;;;16.20;63.70;;;;;;5096616;28;20039;-71
2022/07/28 05:29:40;;;;;;;2.20;0.98;;;16.20;63.70;;;;;;5114538;28;20091;-71
2022/07/28 05:32:07;;;;;;;2.90;0.98;;;16.10;63.90;;;;;;5114337;28;20087;-71
2022/07/28 05:34:33;;;;;;;3.83;1.05;;;16.10;64.10;;;;;;5114409;28;20016;-71
2022/07/28 05:37:02;;;;;;;6.78;1.30;;;16.10;64.30;;;;;;5114338;28;20020;-71
2022/07/28 05:39:30;;;;;;;4.18;0.98;;;16.20;64.40;;;;;;5114446;28;20025;-71
2022/07/28 05:41:56;;;;;;;3.35;1.13;;;16.10;64.00;;;;;;5114248;28;20024;-71
2022/07/28 05:44:21;;;;;;;4.03;1.15;;;16.00;63.50;;;;;;5114212;28;20458;-71
2022/07/28 05:46:47;;;;;;;6.07;1.00;;;16.00;63.90;;;;;;5079598;28;20028;-71
2022/07/28 05:49:12;;;;;;;1.13;0.80;;;16.00;64.30;;;;;;5114083;28;20036;-71
2022/07/28 05:51:38;;;;;;;2.25;1.13;;;16.10;64.10;;;;;;5096278;28;20508;-71
2022/07/28 05:54:04;;;;;;;7.82;1.30;;;16.10;64.20;;;;;;5079405;28;20036;-71
2022/07/28 05:56:29;;;;;;;3.78;1.17;;;16.10;64.20;;;;;;5096150;28;20020;-70
2022/07/28 05:58:55;;;;;;;3.60;1.13;;;16.20;64.10;;;;;;5113935;28;20032;-71
2022/07/28 06:01:20;;;;;;;2.88;1.00;;;16.20;63.80;;;;;;5113918;28;20043;-71
2022/07/28 06:03:48;;;;;;;3.75;1.25;;;16.30;63.70;;;;;;5113904;28;20054;-70
2022/07/28 06:06:13;;;;;;;2.72;0.80;;;16.30;63.10;;;;;;5113890;28;20079;-71
2022/07/28 06:08:39;;;;;;;3.08;0.70;;;16.30;63.10;;;;;;5113827;28;20138;-70
2022/07/28 06:11:08;;;;;;;4.78;1.20;;;16.30;63.20;;;;;;5113518;28;20111;-70
2022/07/28 06:13:38;;;;;;;3.33;0.95;;;16.30;63.10;;;;;;5113745;28;20020;-70
2022/07/28 06:16:04;;;;;;;2.15;0.80;;;16.30;63.30;;;;;;5094894;28;20020;-71
2022/07/28 06:18:30;;;;;;;4.15;1.02;;;16.30;63.10;;;;;;5113859;28;20020;-70
2022/07/28 06:20:56;;;;;;;3.20;0.80;;;16.40;63.10;;;;;;5113668;28;20039;-71
2022/07/28 06:23:25;;;;;;;3.63;1.08;;;16.40;63.00;;;;;;5113592;28;20028;-70
2022/07/28 06:25:51;;;;;;;5.10;1.25;;;16.50;62.20;;;;;;5079354;28;20032;-70
2022/07/28 06:28:18;;;;;;;4.82;1.50;;;16.60;62.40;;;;;;5113523;28;20024;-70
2022/07/28 06:30:47;;;;;;;3.53;0.98;;;16.60;62.30;;;;;;5113467;28;20025;-70
2022/07/28 06:33:14;;;;;;;1.58;0.80;;;16.70;62.40;;;;;;5113520;28;20079;-70
2022/07/28 06:35:40;;;;;;;5.20;1.20;;;16.70;62.00;;;;;;5113493;28;20024;-70
2022/07/28 06:38:05;;;;;;;2.33;0.90;;;16.70;62.00;;;;;;5079011;28;20036;-70
2022/07/28 06:40:31;;;;;;;4.68;1.13;;;16.70;62.20;;;;;;5095714;28;20024;-70
2022/07/28 06:42:57;;;;;;;2.53;1.13;;;16.70;62.30;;;;;;5095630;28;20032;-70
2022/07/28 06:45:22;;;;;;;2.85;1.10;;;16.80;62.00;;;;;;5095530;28;20032;-70
2022/07/28 06:47:49;;;;;;;3.65;1.10;;;16.80;62.70;;;;;;5095580;28;20024;-71
2022/07/28 06:50:15;;;;;;;3.08;1.00;;;16.90;61.90;;;;;;5113286;28;20093;-70
2022/07/28 06:52:40;;;;;;;1.85;0.80;;;17.00;62.10;;;;;;5113216;28;20061;-70
2022/07/28 06:55:06;;;;;;;1.40;0.82;;;17.00;61.80;;;;;;5113304;28;20025;-70
2022/07/28 06:57:33;;;;;;;1.73;0.88;;;17.00;61.70;;;;;;5113297;28;20021;-70
2022/07/28 06:59:59;;;;;;;2.63;0.95;;;17.00;61.20;;;;;;5113251;28;20051;-70
2022/07/28 07:02:25;;;;;;;2.45;0.90;;;17.10;61.00;;;;;;5113237;28;20028;-70
2022/07/28 07:04:51;;;;;;;2.45;0.70;;;17.10;61.20;;;;;;5113225;28;20039;-70
2022/07/28 07:07:16;;;;;;;1.83;0.88;;;17.20;61.10;;;;;;5062169;28;20020;-70
2022/07/28 07:09:43;;;;;;;4.57;1.15;;;17.30;60.60;;;;;;5113356;28;20024;-70
2022/07/28 07:12:09;;;;;;;5.25;0.90;;;17.30;60.60;;;;;;5112967;28;20052;-70
2022/07/28 07:14:34;;;;;;;1.55;0.90;;;17.40;60.70;;;;;;5095237;28;20035;-70
2022/07/28 07:17:00;;;;;;;4.40;1.02;;;17.40;60.20;;;;;;5113115;28;20028;-70
2022/07/28 07:19:26;;;;;;;2.35;0.95;;;17.40;60.30;;;;;;5113103;28;20035;-70
2022/07/28 07:21:51;;;;;;;2.40;0.80;;;17.50;60.40;;;;;;5113077;28;20036;-70
2022/07/28 07:24:17;;;;;;;5.13;1.00;;;17.60;60.50;;;;;;5113047;28;20032;-70
2022/07/28 07:26:43;;;;;;;4.25;0.77;;;17.60;60.90;;;;;;5095118;28;20020;-71
2022/07/28 07:29:10;;;;;;;2.35;0.90;;;17.70;60.80;;;;;;5116725;28;20032;-70
2022/07/28 07:31:37;;;;;;;1.75;0.70;;;17.80;60.30;;;;;;5116743;28;20028;-70
2022/07/28 07:34:04;;;;;;;3.78;0.80;;;17.90;60.30;;;;;;5116671;28;20031;-70
2022/07/28 07:36:30;;;;;;;2.47;0.73;;;18.00;59.10;;;;;;5116682;28;20046;-70
2022/07/28 07:38:55;;;;;;;3.28;0.88;;;18.10;59.10;;;;;;5082154;28;20432;-70
2022/07/28 07:41:21;;;;;;;1.92;0.80;;;18.10;59.00;;;;;;5098597;28;20036;-70
2022/07/28 07:43:47;;;;;;;2.05;0.77;;;18.20;59.60;;;;;;5116507;28;20028;-70
2022/07/28 07:46:14;;;;;;;1.13;0.75;;;18.40;59.30;;;;;;5116526;28;20028;-69
2022/07/28 07:48:40;;;;;;;2.63;0.70;;;18.50;59.30;;;;;;5116474;28;20024;-70
2022/07/28 07:51:06;;;;;;;1.63;0.98;;;18.60;58.90;;;;;;5098378;28;20028;-70
2022/07/28 07:53:32;;;;;;;2.80;0.90;;;18.60;58.40;;;;;;5098690;28;20024;-70
2022/07/28 07:55:57;;;;;;;2.88;0.68;;;18.70;58.10;;;;;;5098669;28;20485;-69
2022/07/28 07:58:23;;;;;;;2.58;0.73;;;18.80;57.10;;;;;;5098388;28;20031;-70
2022/07/28 08:00:49;;;;;;;0.80;0.60;;;18.80;57.80;;;;;;5116172;28;20027;-69
2022/07/28 08:03:15;;;;;;;3.45;0.90;;;18.90;57.50;;;;;;5116151;28;20059;-69
2022/07/28 08:05:42;;;;;;;1.95;0.70;;;19.00;57.20;;;;;;5116041;28;20028;-69
2022/07/28 08:08:08;;;;;;;2.85;0.98;;;19.10;56.90;;;;;;5116033;28;20027;-70
2022/07/28 08:10:34;;;;;;;1.55;0.80;;;19.10;55.60;;;;;;5115890;28;20026;-70
2022/07/28 08:13:00;;;;;;;1.80;0.90;;;19.20;56.00;;;;;;5115906;28;20034;-69
2022/07/28 08:15:26;;;;;;;3.85;0.98;;;19.20;55.20;;;;;;5097890;28;20048;-70
2022/07/28 08:17:51;;;;;;;2.58;0.82;;;19.20;55.40;;;;;;5098124;28;20024;-70
2022/07/28 08:20:17;;;;;;;1.38;0.60;;;19.30;55.20;;;;;;5115842;28;20035;-69
2022/07/28 08:22:55;;;;;;;2.40;0.70;;;19.40;55.20;;;;;;5115819;28;20049;-70
2022/07/28 08:25:21;;;;;;;1.63;0.75;;;19.40;54.90;;;;;;5115956;28;20020;-70
2022/07/28 08:27:47;;;;;;;2.60;0.80;;;19.40;54.50;;;;;;5097721;28;20024;-70
2022/07/28 08:30:13;;;;;;;2.97;0.60;;;19.50;54.50;;;;;;5115659;28;20016;-70
2022/07/28 08:32:40;;;;;;;3.63;0.90;;;19.40;54.20;;;;;;5115486;28;20356;-70
2022/07/28 08:35:06;;;;;;;1.65;0.63;;;19.30;53.60;;;;;;5115559;28;20028;-70
2022/07/28 08:37:32;;;;;;;2.50;0.80;;;19.20;53.80;;;;;;5097650;28;20020;-69
2022/07/28 08:39:57;;;;;;;2.05;0.80;;;19.20;54.60;;;;;;5096547;28;20375;-70
2022/07/28 08:42:57;;;;;;;4.25;0.75;;;19.30;54.00;;;;;;5097577;28;20028;-70
2022/07/28 08:45:25;;;;;;;2.38;0.80;;;19.40;54.50;;;;;;5107494;28;20047;-70
2022/07/28 08:47:54;;;;;;;1.85;0.73;;;19.60;52.20;;;;;;5115298;28;20028;-69
2022/07/28 08:50:24;;;;;;;4.32;1.35;;;19.60;53.60;;;;;;5115252;28;20079;-70
2022/07/28 08:52:51;;;;;;;2.88;0.88;;;19.70;52.90;;;;;;5115195;28;20091;-70
2022/07/28 08:55:25;;;;;;;1.73;0.65;;;19.80;53.60;;;;;;5115169;28;20027;-69
2022/07/28 08:57:55;;;;;;;3.20;0.73;;;19.90;52.50;;;;;;5097384;28;20084;-69
2022/07/28 09:00:21;;;;;;;2.22;0.82;;;19.90;52.80;;;;;;5098180;28;20020;-69
2022/07/28 09:02:48;;;;;;;5.30;0.90;;;20.00;51.30;;;;;;5097126;28;20058;-70
2022/07/28 09:05:14;;;;;;;3.40;0.85;;;20.00;51.90;;;;;;5114963;28;20031;-70
2022/07/28 09:07:40;;;;;;;2.03;0.80;;;20.10;52.70;;;;;;5097088;28;20036;-70
2022/07/28 09:10:10;;;;;;;2.47;0.80;;;20.20;52.30;;;;;;5096964;28;20081;-70
2022/07/28 09:12:38;;;;;;;3.88;1.13;;;20.40;53.30;;;;;;5114591;28;20048;-70
2022/07/28 09:15:06;;;;;;;2.70;0.80;;;20.50;52.30;;;;;;5114795;28;20099;-70
2022/07/28 09:17:33;;;;;;;3.13;0.82;;;20.50;52.20;;;;;;5096873;28;20039;-69
2022/07/28 09:19:59;;;;;;;3.10;0.77;;;20.70;52.30;;;;;;5114640;28;20031;-70
2022/07/28 09:22:25;;;;;;;4.63;0.82;;;20.70;52.10;;;;;;5114627;28;20031;-70
2022/07/28 09:24:51;;;;;;;2.90;1.30;;;20.80;51.90;;;;;;5096808;28;20036;-70
2022/07/28 09:27:17;;;;;;;5.85;0.98;;;20.90;50.50;;;;;;5114476;28;20088;-70
2022/07/28 09:29:47;;;;;;;3.80;0.85;;;20.90;50.50;;;;;;5114478;28;20024;-70
2022/07/28 09:32:15;;;;;;;2.45;1.10;;;21.00;51.30;;;;;;5096430;28;20024;-70
2022/07/28 09:34:43;;;;;;;1.13;0.65;;;21.10;51.50;;;;;;5114411;28;20046;-69
2022/07/28 09:37:17;;;;;;;2.05;0.77;;;21.20;50.50;;;;;;5114337;28;20022;-69
2022/07/28 09:39:43;;;;;;;0.98;0.60;;;21.20;49.40;;;;;;5114323;28;20015;-70
2022/07/28 09:42:09;;;;;;;3.75;0.70;;;21.20;50.20;;;;;;5114236;28;20066;-70
2022/07/28 09:44:34;;;;;;;1.75;0.88;;;21.30;50.30;;;;;;5114244;28;20043;-70
2022/07/28 09:47:19;;;;;;;3.33;0.95;;;21.40;50.20;;;;;;5114165;28;20028;-69
2022/07/28 09:49:45;;;;;;;2.58;1.00;;;21.50;50.40;;;;;;5113951;28;20514;-70
2022/07/28 09:52:10;;;;;;;3.70;0.73;;;21.60;50.20;;;;;;5113983;28;20028;-70
2022/07/28 09:54:36;;;;;;;3.05;1.05;;;21.60;49.50;;;;;;5114063;28;20039;-70
2022/07/28 09:57:02;;;;;;;4.38;1.00;;;21.70;49.80;;;;;;5114133;28;20083;-70
2022/07/28 09:59:40;;;;;;;3.10;0.98;;;21.80;49.40;;;;;;5114118;28;20036;-70
2022/07/28 10:02:06;;;;;;;1.65;0.90;;;21.90;49.00;;;;;;5113989;28;20020;-70
2022/07/28 10:04:32;;;;;;;2.13;0.90;;;21.90;48.90;;;;;;5113892;28;20027;-70
2022/07/28 10:07:08;;;;;;;3.88;0.98;;;22.00;48.70;;;;;;5113819;28;20028;-70
2022/07/28 10:09:35;;;;;;;1.60;0.77;;;22.00;48.30;;;;;;5113875;28;20020;-70
2022/07/28 10:12:18;;;;;;;1.65;0.80;;;22.10;48.50;;;;;;5113548;28;20067;-70
2022/07/28 10:14:45;;;;;;;2.28;0.90;;;22.20;47.90;;;;;;5113786;28;20031;-70
2022/07/28 10:17:20;;;;;;;2.35;0.80;;;22.30;48.00;;;;;;5113783;28;20016;-70
2022/07/28 10:19:46;;;;;;;3.13;0.85;;;22.30;46.60;;;;;;5097403;28;20059;-70
2022/07/28 10:22:13;;;;;;;3.67;1.38;;;22.40;47.00;;;;;;5113777;28;20028;-70
2022/07/28 10:24:39;;;;;;;1.63;0.70;;;22.50;47.50;;;;;;5095884;28;20032;-70
2022/07/28 10:27:05;;;;;;;3.88;1.00;;;22.60;47.50;;;;;;5095761;28;20024;-70
2022/07/28 10:29:31;;;;;;;3.70;1.00;;;22.70;47.00;;;;;;5113479;28;20036;-70
2022/07/28 10:32:03;;;;;;;1.85;0.70;;;22.80;46.30;;;;;;5113492;28;20032;-70
2022/07/28 10:34:43;;;;;;;2.20;0.77;;;22.70;45.60;;;;;;5113550;28;20016;-70
2022/07/28 10:37:17;;;;;;;2.33;0.80;;;22.70;45.30;;;;;;5113542;28;20016;-70
2022/07/28 10:39:50;;;;;;;3.67;0.73;;;22.70;45.30;;;;;;5113468;28;20046;-70
2022/07/28 10:42:18;;;;;;;4.30;0.82;;;22.70;45.00;;;;;;5113491;28;20025;-70
2022/07/28 10:44:45;;;;;;;2.38;0.63;;;22.80;45.40;;;;;;5113427;28;20050;-70
2022/07/28 10:47:11;;;;;;;5.15;0.80;;;22.90;45.20;;;;;;5113410;28;20090;-70
2022/07/28 10:49:40;;;;;;;4.18;1.15;;;23.00;45.50;;;;;;5095472;28;20017;-70
2022/07/28 10:52:06;;;;;;;1.38;0.60;;;23.10;45.20;;;;;;5113260;28;20036;-71
2022/07/28 10:54:44;;;;;;;3.15;0.80;;;23.10;44.80;;;;;;5113353;28;20043;-70
2022/07/28 10:57:11;;;;;;;3.80;0.68;;;23.20;44.50;;;;;;5113350;28;20020;-70
2022/07/28 11:00:00;;;;;;;2.47;0.70;;;23.20;44.20;;;;;;5113293;28;20020;-70
2022/07/28 11:02:51;;;;;;;1.05;0.70;;;23.30;44.20;;;;;;5114575;28;20053;-70
2022/07/28 11:05:37;;;;;;;2.53;0.70;;;23.30;43.30;;;;;;5117290;28;20024;-70
2022/07/28 11:08:15;;;;;;;4.60;0.80;;;23.30;44.00;;;;;;5117254;28;20031;-70
2022/07/28 11:10:50;;;;;;;2.85;1.10;;;23.30;43.50;;;;;;5099191;28;20036;-71
2022/07/28 11:13:28;;;;;;;4.40;0.98;;;23.40;43.60;;;;;;5117029;28;20094;-70
2022/07/28 11:16:14;;;;;;;2.72;0.80;;;23.50;42.90;;;;;;5099215;28;20024;-70
2022/07/28 11:19:09;;;;;;;1.92;0.70;;;23.50;43.60;;;;;;5099437;28;20479;-70
2022/07/28 11:21:35;;;;;;;1.77;0.75;;;23.70;43.10;;;;;;5116940;28;20020;-70
2022/07/28 11:24:00;;;;;;;2.28;1.30;;;23.70;44.00;;;;;;5116956;28;20103;-70
2022/07/28 11:26:34;;;;;;;2.22;0.68;;;23.80;43.20;;;;;;5099064;28;20446;-70
2022/07/28 11:29:02;;;;;;;2.72;0.70;;;23.80;42.90;;;;;;5098838;28;20021;-70
2022/07/28 11:31:43;;;;;;;1.90;0.80;;;23.70;40.70;;;;;;5116734;28;20483;-70
2022/07/28 11:34:13;;;;;;;1.05;0.80;;;23.70;41.90;;;;;;5116760;28;20123;-70
2022/07/28 11:37:01;;;;;;;4.55;0.77;;;23.70;43.30;;;;;;5116932;28;20024;-70
2022/07/28 11:39:38;;;;;;;3.47;1.17;;;23.90;42.50;;;;;;5116665;28;20016;-69
2022/07/28 11:42:25;;;;;;;4.03;0.88;;;24.10;41.30;;;;;;5116616;28;20387;-70
2022/07/28 11:44:52;;;;;;;1.73;0.75;;;24.00;41.20;;;;;;5116498;28;20043;-67
2022/07/28 11:47:19;;;;;;;2.65;1.00;;;23.80;40.40;;;;;;5098644;28;20034;-67
2022/07/28 11:50:10;;;;;;;2.20;0.68;;;23.90;40.50;;;;;;5116455;28;20024;-69
2022/07/28 11:52:37;;;;;;;3.67;0.82;;;24.00;40.60;;;;;;5116375;28;20039;-70
2022/07/28 11:55:04;;;;;;;2.85;0.85;;;24.10;42.50;;;;;;5116354;28;20079;-68
2022/07/28 11:57:38;;;;;;;2.10;0.95;;;24.20;41.10;;;;;;5116305;28;20027;-68
2022/07/28 12:00:05;;;;;;;0.90;0.52;;;24.30;40.50;;;;;;5116264;28;20016;-68
2022/07/28 12:02:33;;;;;;;0.88;0.60;;;24.40;41.40;;;;;;5116226;28;20028;-67
2022/07/28 12:05:11;;;;;;;2.92;0.60;;;24.50;40.90;;;;;;5116156;28;20028;-68
2022/07/28 12:07:39;;;;;;;2.58;0.82;;;24.70;40.50;;;;;;5116171;28;20024;-68
2022/07/28 12:10:24;;;;;;;2.83;0.80;;;24.60;38.80;;;;;;5115907;28;20024;-68
2022/07/28 12:13:04;;;;;;;1.40;0.90;;;24.70;39.90;;;;;;5115751;28;20044;-68
2022/07/28 12:15:31;;;;;;;2.60;0.70;;;24.60;40.00;;;;;;5098131;28;20055;-68
2022/07/28 12:17:58;;;;;;;2.30;0.70;;;24.70;40.00;;;;;;5115898;28;20501;-68
2022/07/28 12:20:30;;;;;;;1.50;0.60;;;24.70;39.00;;;;;;5116034;28;20080;-68
2022/07/28 12:23:14;;;;;;;4.20;1.10;;;24.80;39.70;;;;;;5098014;28;20020;-68
2022/07/28 12:25:42;;;;;;;3.03;0.80;;;24.80;39.60;;;;;;5115953;28;20055;-68
2022/07/28 12:28:16;;;;;;;1.98;0.90;;;24.80;39.70;;;;;;5115651;28;20016;-69
2022/07/28 12:30:41;;;;;;;3.17;0.73;;;24.70;39.60;;;;;;5115677;28;20032;-68
2022/07/28 12:33:25;;;;;;;2.38;0.70;;;24.60;38.80;;;;;;5115537;28;20032;-69
2022/07/28 12:35:55;;;;;;;3.72;0.80;;;24.40;38.30;;;;;;5097666;28;20040;-68
2022/07/28 12:38:25;;;;;;;3.30;0.68;;;24.30;39.30;;;;;;5115569;28;20020;-68
2022/07/28 12:40:52;;;;;;;2.70;0.90;;;24.30;39.90;;;;;;5115427;28;20043;-69
2022/07/28 12:43:28;;;;;;;2.22;0.70;;;24.50;40.20;;;;;;5115456;28;20016;-69
2022/07/28 12:45:54;;;;;;;1.88;0.75;;;24.60;39.70;;;;;;5115403;28;20390;-69
2022/07/28 12:48:20;;;;;;;2.95;1.15;;;24.70;39.70;;;;;;5115421;28;20063;-69
2022/07/28 12:50:49;;;;;;;4.35;0.93;;;24.70;38.10;;;;;;5115251;28;20024;-69
2022/07/28 12:53:16;;;;;;;2.33;0.90;;;24.80;39.40;;;;;;5115086;28;20024;-69
2022/07/28 12:55:43;;;;;;;2.40;0.80;;;24.90;39.40;;;;;;5115147;28;20025;-69